Time;durP1;ratioP1;P1;durP2;ratioP2;P2;SDS_P1;SDS_P2;PMS_P1;PMS_P2;Temp;Humidity;BMP_temperature;BMP_pressure;BME280_temperature;BME280_humidity;BME280_pressure;Samples;Min_cycle;Max_cycle;Signal;HPM_P1;HPM_P2
2022/08/18 00:02:14;;;;;;;2.50;1.45;;;;;;;;;;4959243;28;20558;-81
2022/08/18 00:04:43;;;;;;;2.22;1.30;;;;;;;;;;4966652;28;20487;-81
2022/08/18 00:07:18;;;;;;;1.23;1.05;;;;;;;;;;4931595;29;20043;-81
2022/08/18 00:09:46;;;;;;;2.92;1.48;;;;;;;;;;4952099;28;20114;-81
2022/08/18 00:12:16;;;;;;;3.53;1.77;;;;;;;;;;4951732;28;20540;-82
2022/08/18 00:14:47;;;;;;;2.65;1.50;;;;;;;;;;4941664;28;20500;-81
2022/08/18 00:17:15;;;;;;;4.30;1.55;;;;;;;;;;4970605;28;20446;-82
2022/08/18 00:19:44;;;;;;;2.75;1.50;;;;;;;;;;4970896;28;20145;-82
2022/08/18 00:22:16;;;;;;;2.85;1.38;;;;;;;;;;4971053;28;20058;-81
2022/08/18 00:24:45;;;;;;;2.35;1.15;;;;;;;;;;4971114;28;20051;-81
2022/08/18 00:27:20;;;;;;;1.35;1.10;;;;;;;;;;4951424;28;20060;-82
2022/08/18 00:29:51;;;;;;;5.28;1.45;;;;;;;;;;4944531;28;20066;-82
2022/08/18 00:32:20;;;;;;;1.70;1.13;;;;;;;;;;4949699;28;20129;-81
2022/08/18 00:34:48;;;;;;;1.48;1.20;;;;;;;;;;4951126;28;20154;-83
2022/08/18 00:37:17;;;;;;;1.83;1.17;;;;;;;;;;4958341;28;20130;-81
2022/08/18 00:39:45;;;;;;;1.38;1.10;;;;;;;;;;4946323;28;20154;-82
2022/08/18 00:42:16;;;;;;;2.08;1.08;;;;;;;;;;4948493;28;20063;-82
2022/08/18 00:45:00;;;;;;;2.15;1.17;;;;;;;;;;4949002;28;20071;-81
2022/08/18 00:47:28;;;;;;;1.45;1.25;;;;;;;;;;4952542;28;20082;-82
2022/08/18 00:50:12;;;;;;;1.25;0.95;;;;;;;;;;4952723;28;20496;-82
2022/08/18 00:52:43;;;;;;;0.88;0.75;;;;;;;;;;4951744;28;20090;-83
2022/08/18 00:55:11;;;;;;;5.93;1.50;;;;;;;;;;4954364;28;20058;-81
2022/08/18 00:57:41;;;;;;;1.27;1.05;;;;;;;;;;4949745;28;20074;-81
2022/08/18 01:00:13;;;;;;;1.45;0.82;;;;;;;;;;4955575;28;20059;-81
2022/08/18 01:02:43;;;;;;;3.40;1.52;;;;;;;;;;4950503;28;20427;-82
2022/08/18 01:05:15;;;;;;;4.97;1.02;;;;;;;;;;4951102;28;20144;-82
2022/08/18 01:07:45;;;;;;;3.13;1.40;;;;;;;;;;4948508;28;20054;-81
2022/08/18 01:10:15;;;;;;;1.52;1.17;;;;;;;;;;4951943;28;20134;-82
2022/08/18 01:12:44;;;;;;;3.83;1.02;;;;;;;;;;4947872;28;20059;-82
2022/08/18 01:15:16;;;;;;;1.52;1.08;;;;;;;;;;4950236;28;20047;-82
2022/08/18 01:23:34;;;;;;;1.23;0.90;;;;;;;;;;4951429;28;20086;-85
2022/08/18 01:26:03;;;;;;;0.98;0.88;;;;;;;;;;4950254;28;20134;-83
2022/08/18 01:28:37;;;;;;;2.78;2.17;;;;;;;;;;4954318;28;20122;-82
2022/08/18 01:31:10;;;;;;;1.90;1.17;;;;;;;;;;4954757;28;20125;-82
2022/08/18 01:33:39;;;;;;;3.28;0.98;;;;;;;;;;4953943;28;20161;-82
2022/08/18 01:36:13;;;;;;;1.02;0.80;;;;;;;;;;4968788;28;20081;-84
2022/08/18 01:38:43;;;;;;;1.05;0.95;;;;;;;;;;4948453;28;20503;-82
2022/08/18 01:41:11;;;;;;;1.15;0.93;;;;;;;;;;4956288;28;20089;-84
2022/08/18 01:43:55;;;;;;;1.88;0.88;;;;;;;;;;4953728;28;20135;-83
2022/08/18 01:46:24;;;;;;;2.20;1.40;;;;;;;;;;4953695;28;20474;-82
2022/08/18 01:48:52;;;;;;;0.65;0.57;;;;;;;;;;4943878;28;20055;-82
2022/08/18 01:51:21;;;;;;;1.38;0.82;;;;;;;;;;4954331;28;20082;-81
2022/08/18 01:54:10;;;;;;;0.98;0.82;;;;;;;;;;4953858;28;20055;-82
2022/08/18 01:56:39;;;;;;;3.50;1.05;;;;;;;;;;4951054;28;20098;-84
2022/08/18 01:59:13;;;;;;;1.08;0.82;;;;;;;;;;4953545;28;20059;-83
2022/08/18 02:01:43;;;;;;;1.30;0.93;;;;;;;;;;4954286;28;20051;-82
2022/08/18 02:04:22;;;;;;;1.65;0.80;;;;;;;;;;4951886;28;20059;-83
2022/08/18 02:07:05;;;;;;;1.85;1.15;;;;;;;;;;4953451;28;20106;-84
2022/08/18 02:09:36;;;;;;;1.83;1.10;;;;;;;;;;4949351;28;20047;-82
2022/08/18 02:12:05;;;;;;;1.13;0.98;;;;;;;;;;4952246;28;20047;-82
2022/08/18 02:14:34;;;;;;;4.15;1.30;;;;;;;;;;4950050;28;20232;-82
2022/08/18 02:17:04;;;;;;;1.60;1.05;;;;;;;;;;4950615;28;20071;-83
2022/08/18 02:19:33;;;;;;;2.35;1.20;;;;;;;;;;4950835;28;20134;-83
2022/08/18 02:22:02;;;;;;;2.05;1.15;;;;;;;;;;4951486;28;20423;-84
2022/08/18 02:24:30;;;;;;;5.97;1.05;;;;;;;;;;4941648;28;20126;-82
2022/08/18 02:27:00;;;;;;;1.75;1.25;;;;;;;;;;4951061;28;20086;-82
2022/08/18 02:29:29;;;;;;;2.83;0.85;;;;;;;;;;4951884;28;20530;-82
2022/08/18 02:31:57;;;;;;;1.15;0.68;;;;;;;;;;4961899;28;20097;-81
2022/08/18 02:34:26;;;;;;;1.60;1.23;;;;;;;;;;4956133;28;20098;-82
2022/08/18 02:36:54;;;;;;;1.50;0.90;;;;;;;;;;4950165;28;20127;-81
2022/08/18 02:39:23;;;;;;;2.80;1.10;;;;;;;;;;4950042;28;20325;-81
2022/08/18 02:41:52;;;;;;;2.90;1.20;;;;;;;;;;4946298;28;20050;-82
2022/08/18 02:44:22;;;;;;;1.58;0.50;;;;;;;;;;4949766;28;20082;-81
2022/08/18 02:46:52;;;;;;;2.33;1.20;;;;;;;;;;4949390;28;20055;-81
2022/08/18 02:49:21;;;;;;;2.75;0.80;;;;;;;;;;4948710;28;20051;-81
2022/08/18 02:51:49;;;;;;;2.28;0.88;;;;;;;;;;4946135;28;20126;-82
2022/08/18 02:54:19;;;;;;;0.50;0.50;;;;;;;;;;4948355;28;20158;-84
2022/08/18 02:56:49;;;;;;;3.38;0.93;;;;;;;;;;4949005;28;20114;-82
2022/08/18 02:59:18;;;;;;;0.93;0.52;;;;;;;;;;4945978;28;20143;-82
2022/08/18 03:01:50;;;;;;;1.83;0.88;;;;;;;;;;4949912;28;20051;-82
2022/08/18 03:04:20;;;;;;;1.60;1.00;;;;;;;;;;4947207;28;20126;-83
2022/08/18 03:06:56;;;;;;;2.33;0.90;;;;;;;;;;4951731;28;20059;-83
2022/08/18 03:09:24;;;;;;;1.05;0.80;;;;;;;;;;4945537;28;20476;-82
2022/08/18 03:11:53;;;;;;;1.55;0.93;;;;;;;;;;4950003;28;20090;-82
2022/08/18 03:14:22;;;;;;;1.75;0.80;;;;;;;;;;4949243;28;20055;-82
2022/08/18 03:16:51;;;;;;;1.48;0.75;;;;;;;;;;4948124;28;20208;-82
2022/08/18 03:19:23;;;;;;;1.17;0.80;;;;;;;;;;4947583;28;20058;-82
2022/08/18 03:21:51;;;;;;;0.98;0.60;;;;;;;;;;4947666;28;20500;-81
2022/08/18 03:24:20;;;;;;;0.90;0.73;;;;;;;;;;4948279;28;20051;-82
2022/08/18 03:26:50;;;;;;;1.52;1.23;;;;;;;;;;4950785;28;20050;-82
2022/08/18 03:29:19;;;;;;;1.50;0.98;;;;;;;;;;4961610;28;20090;-82
2022/08/18 03:31:48;;;;;;;1.65;1.33;;;;;;;;;;4958775;28;20095;-82
2022/08/18 03:34:19;;;;;;;1.05;0.90;;;;;;;;;;4952592;28;20130;-82
2022/08/18 03:36:48;;;;;;;2.13;0.88;;;;;;;;;;4951057;28;20052;-81
2022/08/18 03:39:18;;;;;;;1.05;0.73;;;;;;;;;;4949465;28;20063;-82
2022/08/18 03:41:46;;;;;;;1.58;1.02;;;;;;;;;;4951064;28;20093;-82
2022/08/18 03:44:27;;;;;;;1.42;1.05;;;;;;;;;;4949553;28;20083;-82
2022/08/18 03:46:56;;;;;;;1.25;0.45;;;;;;;;;;4951311;28;20280;-82
2022/08/18 03:49:26;;;;;;;0.73;0.60;;;;;;;;;;4952275;28;20055;-81
2022/08/18 03:51:54;;;;;;;0.85;0.63;;;;;;;;;;4952392;28;20087;-82
2022/08/18 03:54:23;;;;;;;1.85;0.55;;;;;;;;;;4952320;28;20532;-82
2022/08/18 03:56:53;;;;;;;1.80;1.13;;;;;;;;;;4949137;28;20138;-82
2022/08/18 03:59:23;;;;;;;0.70;0.60;;;;;;;;;;4946331;28;20488;-83
2022/08/18 04:01:52;;;;;;;0.95;0.50;;;;;;;;;;4952405;28;20126;-82
2022/08/18 04:04:22;;;;;;;0.40;0.40;;;;;;;;;;4950668;28;20487;-82
2022/08/18 04:06:54;;;;;;;1.23;0.65;;;;;;;;;;4960442;28;20506;-81
2022/08/18 04:09:23;;;;;;;1.08;0.57;;;;;;;;;;4948648;28;20610;-81
2022/08/18 04:11:52;;;;;;;1.25;0.88;;;;;;;;;;4949824;28;20250;-82
2022/08/18 04:14:23;;;;;;;0.60;0.60;;;;;;;;;;4946933;28;20138;-82
2022/08/18 04:16:51;;;;;;;1.40;1.02;;;;;;;;;;4950405;28;20086;-84
2022/08/18 04:19:20;;;;;;;1.25;0.80;;;;;;;;;;4950625;28;20126;-82
2022/08/18 04:21:57;;;;;;;1.63;0.88;;;;;;;;;;4951039;28;20047;-82
2022/08/18 04:24:26;;;;;;;1.55;0.90;;;;;;;;;;4951998;28;20126;-82
2022/08/18 04:27:00;;;;;;;1.67;0.95;;;;;;;;;;4948982;28;20051;-82
2022/08/18 04:29:28;;;;;;;0.57;0.47;;;;;;;;;;4952619;28;20503;-82
2022/08/18 04:31:57;;;;;;;0.88;0.68;;;;;;;;;;4952906;28;20137;-81
2022/08/18 04:34:26;;;;;;;2.13;1.13;;;;;;;;;;4959580;28;20112;-82
2022/08/18 04:36:55;;;;;;;1.58;0.57;;;;;;;;;;4953164;28;20056;-81
2022/08/18 04:39:24;;;;;;;1.55;0.77;;;;;;;;;;4952606;28;20126;-81
2022/08/18 04:41:53;;;;;;;2.75;0.65;;;;;;;;;;4945787;28;20119;-82
2022/08/18 04:44:21;;;;;;;0.95;0.55;;;;;;;;;;4954983;28;20523;-84
2022/08/18 04:46:51;;;;;;;1.67;0.80;;;;;;;;;;4949308;28;20090;-81
2022/08/18 04:49:20;;;;;;;1.23;0.65;;;;;;;;;;4948547;28;20091;-81
2022/08/18 04:53:43;;;;;;;2.92;1.27;;;;;;;;;;4953066;28;20494;-81
2022/08/18 04:55:00;;;;;;;1.30;0.85;;;;;;;;;;4948703;28;20055;-83
2022/08/18 04:57:32;;;;;;;2.40;0.95;;;;;;;;;;4952985;28;20427;-82
2022/08/18 05:00:02;;;;;;;1.33;1.00;;;;;;;;;;4952437;28;20499;-82
2022/08/18 05:02:31;;;;;;;1.50;0.93;;;;;;;;;;4954104;28;20063;-84
2022/08/18 05:05:02;;;;;;;1.35;0.93;;;;;;;;;;4954145;28;20051;-82
2022/08/18 05:07:31;;;;;;;0.95;0.65;;;;;;;;;;4951990;28;20426;-83
2022/08/18 05:10:01;;;;;;;0.73;0.55;;;;;;;;;;4951821;28;20098;-82
2022/08/18 05:12:29;;;;;;;0.43;0.38;;;;;;;;;;4957638;28;20099;-81
2022/08/18 05:14:58;;;;;;;2.45;1.00;;;;;;;;;;4951127;28;20102;-82
2022/08/18 05:17:27;;;;;;;2.05;0.98;;;;;;;;;;4951086;28;20047;-82
2022/08/18 05:19:58;;;;;;;2.33;0.50;;;;;;;;;;4951013;28;20039;-83
2022/08/18 05:22:29;;;;;;;1.35;0.70;;;;;;;;;;4948297;28;20055;-81
2022/08/18 05:24:59;;;;;;;0.90;0.70;;;;;;;;;;4949570;28;20083;-81
2022/08/18 05:27:33;;;;;;;1.77;1.15;;;;;;;;;;4947447;28;20051;-82
2022/08/18 05:30:02;;;;;;;0.93;0.55;;;;;;;;;;4947314;28;20051;-84
2022/08/18 05:32:33;;;;;;;6.47;1.60;;;;;;;;;;4958185;28;20502;-82
2022/08/18 05:35:18;;;;;;;1.33;0.80;;;;;;;;;;4955391;28;20081;-82
2022/08/18 05:37:54;;;;;;;1.73;0.77;;;;;;;;;;4951346;28;20047;-83
2022/08/18 05:40:24;;;;;;;0.40;0.40;;;;;;;;;;4948588;28;20139;-82
2022/08/18 05:42:56;;;;;;;2.47;1.63;;;;;;;;;;4953452;28;20491;-82
2022/08/18 05:45:24;;;;;;;2.17;0.98;;;;;;;;;;4952235;28;20059;-81
2022/08/18 05:47:58;;;;;;;1.30;1.15;;;;;;;;;;4948761;28;20731;-82
2022/08/18 05:50:28;;;;;;;2.20;0.95;;;;;;;;;;4950121;28;20043;-85
2022/08/18 05:52:58;;;;;;;2.90;0.90;;;;;;;;;;4950584;28;20087;-82
2022/08/18 05:58:19;;;;;;;1.88;0.88;;;;;;;;;;4954080;28;20093;-82
2022/08/18 06:00:52;;;;;;;1.40;0.73;;;;;;;;;;4952023;28;20057;-83
2022/08/18 06:03:29;;;;;;;1.05;0.95;;;;;;;;;;4952311;28;20463;-81
2022/08/18 06:06:14;;;;;;;2.25;1.00;;;;;;;;;;4945395;28;20059;-82
2022/08/18 06:08:44;;;;;;;1.20;1.00;;;;;;;;;;4949547;28;20153;-83
2022/08/18 06:11:12;;;;;;;0.65;0.43;;;;;;;;;;4946656;28;20066;-82
2022/08/18 06:13:51;;;;;;;1.65;0.88;;;;;;;;;;4947860;28;20101;-81
2022/08/18 06:16:34;;;;;;;2.20;1.33;;;;;;;;;;4949173;28;20047;-82
2022/08/18 06:19:08;;;;;;;0.65;0.63;;;;;;;;;;4945321;28;20134;-83
2022/08/18 06:21:41;;;;;;;1.00;0.90;;;;;;;;;;4949581;28;20090;-83
2022/08/18 06:24:17;;;;;;;0.95;0.80;;;;;;;;;;4937651;28;20143;-82
2022/08/18 06:26:51;;;;;;;0.98;0.75;;;;;;;;;;4947185;28;20522;-81
2022/08/18 06:29:30;;;;;;;2.45;1.00;;;;;;;;;;4942025;28;20055;-82
2022/08/18 06:32:02;;;;;;;2.92;1.42;;;;;;;;;;4959059;28;20059;-82
2022/08/18 06:34:41;;;;;;;1.48;1.17;;;;;;;;;;4952027;28;20085;-81
2022/08/18 06:37:12;;;;;;;1.27;0.65;;;;;;;;;;4950746;28;20062;-82
2022/08/18 06:39:44;;;;;;;1.92;1.00;;;;;;;;;;4947908;28;20130;-82
2022/08/18 06:42:12;;;;;;;0.90;0.75;;;;;;;;;;4949209;28;20133;-84
2022/08/18 06:44:45;;;;;;;1.35;0.88;;;;;;;;;;4952986;28;20078;-83
2022/08/18 06:47:18;;;;;;;1.30;1.00;;;;;;;;;;4972550;28;20117;-81
2022/08/18 06:49:50;;;;;;;2.05;1.00;;;;;;;;;;4972386;28;20129;-81
2022/08/18 06:52:19;;;;;;;0.70;0.55;;;;;;;;;;4972159;28;20154;-85
2022/08/18 06:54:47;;;;;;;3.10;1.40;;;;;;;;;;4970791;28;21459;-83
2022/08/18 06:57:26;;;;;;;1.10;0.75;;;;;;;;;;4964800;28;20065;-84
2022/08/18 06:59:58;;;;;;;1.33;0.80;;;;;;;;;;4970574;28;20089;-81
2022/08/18 07:02:33;;;;;;;2.25;1.35;;;;;;;;;;4971859;28;20114;-83
2022/08/18 07:05:05;;;;;;;1.38;0.93;;;;;;;;;;4971388;28;20066;-83
2022/08/18 07:07:35;;;;;;;1.08;0.93;;;;;;;;;;4972190;28;20085;-84
2022/08/18 07:10:27;;;;;;;1.98;1.20;;;;;;;;;;4972304;28;20585;-81
2022/08/18 07:13:06;;;;;;;2.35;1.52;;;;;;;;;;4969598;28;20094;-81
2022/08/18 07:15:36;;;;;;;0.73;0.63;;;;;;;;;;4971448;28;20097;-83
2022/08/18 07:18:06;;;;;;;2.10;1.20;;;;;;;;;;4972118;28;20086;-82
2022/08/18 07:20:42;;;;;;;2.10;1.17;;;;;;;;;;4972251;28;20447;-82
2022/08/18 07:23:21;;;;;;;2.83;1.58;;;;;;;;;;4971790;28;20078;-82
2022/08/18 07:25:51;;;;;;;2.78;1.20;;;;;;;;;;4971042;28;20042;-81
2022/08/18 07:28:28;;;;;;;5.55;1.67;;;;;;;;;;4971836;28;20097;-81
2022/08/18 07:31:10;;;;;;;2.13;1.30;;;;;;;;;;4971862;28;20053;-81
2022/08/18 07:33:48;;;;;;;1.75;1.17;;;;;;;;;;4971637;28;20077;-83
2022/08/18 07:36:18;;;;;;;1.40;0.80;;;;;;;;;;4959573;28;20367;-82
2022/08/18 07:38:49;;;;;;;2.78;1.33;;;;;;;;;;4952398;29;20055;-81
2022/08/18 07:41:19;;;;;;;2.05;1.30;;;;;;;;;;4952733;28;20130;-82
2022/08/18 07:43:54;;;;;;;4.72;1.25;;;;;;;;;;4952217;29;20098;-82
2022/08/18 07:46:22;;;;;;;;;;;;;;;;;;4965076;28;20066;-81
2022/08/18 07:48:52;;;;;;;2.65;0.70;;;;;;;;;;4971696;28;19954;-81
2022/08/18 07:51:23;;;;;;;1.33;0.77;;;;;;;;;;4971049;28;20458;-81
2022/08/18 07:53:57;;;;;;;1.40;0.98;;;;;;;;;;4972330;28;20043;-82
2022/08/18 07:56:32;;;;;;;2.45;1.27;;;;;;;;;;4970408;28;20109;-82
2022/08/18 07:59:03;;;;;;;1.25;0.80;;;;;;;;;;4971498;28;20046;-82
2022/08/18 08:01:34;;;;;;;2.25;1.50;;;;;;;;;;4971349;28;20150;-81
2022/08/18 08:04:12;;;;;;;2.85;1.42;;;;;;;;;;4970234;28;20051;-82
2022/08/18 08:06:55;;;;;;;1.33;1.05;;;;;;;;;;4970819;28;20082;-82
2022/08/18 08:09:47;;;;;;;1.75;0.90;;;;;;;;;;4970371;28;20169;-81
2022/08/18 08:12:19;;;;;;;;;;;;;;;;;;4971539;28;20059;-81
2022/08/18 08:14:48;;;;;;;2.13;1.30;;;;;;;;;;4970612;28;19922;-82
2022/08/18 08:17:23;;;;;;;2.17;2.00;;;;;;;;;;4970654;28;20054;-82
2022/08/18 08:20:09;;;;;;;3.25;1.77;;;;;;;;;;4970638;28;20062;-83
2022/08/18 08:22:42;;;;;;;2.35;1.27;;;;;;;;;;4972252;28;20130;-82
2022/08/18 08:25:14;;;;;;;2.88;1.73;;;;;;;;;;4970437;28;20110;-81
2022/08/18 08:28:08;;;;;;;2.45;1.45;;;;;;;;;;4962568;28;20380;-86
2022/08/18 08:30:40;;;;;;;3.75;1.38;;;;;;;;;;4971180;28;20089;-83
2022/08/18 08:33:11;;;;;;;1.65;1.25;;;;;;;;;;4971170;28;20050;-80
2022/08/18 08:35:53;;;;;;;1.65;1.27;;;;;;;;;;4970181;28;20053;-82
2022/08/18 08:38:26;;;;;;;1.52;1.00;;;;;;;;;;4970560;28;20106;-82
2022/08/18 08:41:13;;;;;;;1.13;0.90;;;;;;;;;;4970807;28;20111;-83
2022/08/18 08:43:43;;;;;;;1.73;1.08;;;;;;;;;;4970685;28;20495;-81
2022/08/18 08:46:13;;;;;;;1.60;1.20;;;;;;;;;;4970011;28;20082;-83
2022/08/18 08:48:44;;;;;;;3.88;1.90;;;;;;;;;;4970646;28;20447;-82
2022/08/18 08:51:22;;;;;;;2.25;1.42;;;;;;;;;;4970649;28;20059;-81
2022/08/18 08:53:55;;;;;;;1.77;1.40;;;;;;;;;;4963386;28;20090;-83
2022/08/18 08:56:26;;;;;;;2.45;1.70;;;;;;;;;;4969605;28;20151;-83
2022/08/18 08:58:57;;;;;;;1.42;0.98;;;;;;;;;;4970166;28;20526;-81
2022/08/18 09:01:31;;;;;;;2.10;1.08;;;;;;;;;;4970809;28;20109;-81
2022/08/18 09:04:02;;;;;;;2.15;1.27;;;;;;;;;;4973445;28;20047;-81
2022/08/18 09:06:36;;;;;;;1.80;1.15;;;;;;;;;;4974211;28;20465;-81
2022/08/18 09:09:20;;;;;;;1.95;1.33;;;;;;;;;;4974301;28;20066;-83
2022/08/18 09:11:54;;;;;;;3.50;1.38;;;;;;;;;;4974753;28;20054;-82
2022/08/18 09:14:37;;;;;;;1.95;1.35;;;;;;;;;;4973785;28;20283;-81
2022/08/18 09:17:15;;;;;;;2.78;1.55;;;;;;;;;;4973637;28;20051;-82
2022/08/18 09:19:53;;;;;;;2.22;1.27;;;;;;;;;;4974074;28;20511;-83
2022/08/18 09:22:29;;;;;;;1.48;1.10;;;;;;;;;;4974363;28;20129;-82
2022/08/18 09:24:57;;;;;;;2.80;1.38;;;;;;;;;;4973935;28;20058;-82
2022/08/18 09:27:40;;;;;;;3.85;1.73;;;;;;;;;;4973330;28;20422;-84
2022/08/18 09:30:40;;;;;;;2.50;1.73;;;;;;;;;;4974002;28;20055;-82
2022/08/18 09:33:20;;;;;;;1.63;1.27;;;;;;;;;;4974117;28;20129;-82
2022/08/18 09:36:19;;;;;;;2.75;1.92;;;;;;;;;;4972971;28;20138;-85
2022/08/18 09:41:46;;;;;;;2.83;1.90;;;;;;;;;;4973760;28;20101;-83
2022/08/18 09:44:49;;;;;;;5.25;1.20;;;;;;;;;;4973551;28;20065;-83
2022/08/18 09:47:32;;;;;;;2.42;1.35;;;;;;;;;;4952216;29;20106;-82
2022/08/18 09:50:17;;;;;;;1.55;1.13;;;;;;;;;;4972774;28;20051;-85
2022/08/18 09:52:57;;;;;;;1.65;1.35;;;;;;;;;;4973758;28;20129;-83
2022/08/18 09:55:48;;;;;;;1.73;1.17;;;;;;;;;;4972588;28;20136;-82
2022/08/18 09:58:41;;;;;;;2.72;1.25;;;;;;;;;;4973678;28;20050;-82
2022/08/18 10:01:21;;;;;;;2.72;1.15;;;;;;;;;;4973083;28;20105;-84
2022/08/18 10:04:11;;;;;;;7.00;1.73;;;;;;;;;;4973246;28;20415;-82
2022/08/18 10:06:39;;;;;;;2.88;1.50;;;;;;;;;;4940995;28;20058;-82
2022/08/18 10:09:31;;;;;;;4.43;1.80;;;;;;;;;;4972909;28;20435;-83
2022/08/18 10:12:19;;;;;;;2.42;1.55;;;;;;;;;;4970263;28;20067;-86
2022/08/18 10:15:07;;;;;;;1.42;1.25;;;;;;;;;;4960995;28;20530;-82
2022/08/18 10:17:45;;;;;;;1.63;1.02;;;;;;;;;;4960925;28;20051;-83
2022/08/18 10:20:23;;;;;;;2.60;1.40;;;;;;;;;;4973292;28;20046;-82
2022/08/18 10:22:55;;;;;;;2.90;1.33;;;;;;;;;;4973284;28;20350;-83
2022/08/18 10:25:32;;;;;;;3.08;1.70;;;;;;;;;;4972269;28;20282;-82
2022/08/18 10:28:04;;;;;;;2.63;1.40;;;;;;;;;;4972943;28;20054;-82
2022/08/18 10:30:48;;;;;;;2.78;1.63;;;;;;;;;;4972795;28;20054;-82
2022/08/18 10:34:00;;;;;;;2.58;1.50;;;;;;;;;;4972751;28;20039;-83
2022/08/18 10:36:49;;;;;;;1.85;1.15;;;;;;;;;;4960531;28;20059;-82
2022/08/18 10:39:17;;;;;;;;;;;;;;;;;;4973120;28;20047;-83
2022/08/18 10:41:57;;;;;;;3.05;1.45;;;;;;;;;;4972263;28;20429;-83
2022/08/18 10:44:27;;;;;;;2.47;1.35;;;;;;;;;;4972214;28;20120;-85
2022/08/18 10:46:58;;;;;;;3.40;1.52;;;;;;;;;;4971811;28;20047;-82
2022/08/18 10:49:30;;;;;;;2.53;1.58;;;;;;;;;;4972480;28;20093;-83
2022/08/18 10:52:12;;;;;;;1.65;1.25;;;;;;;;;;4972541;28;20086;-82
2022/08/18 10:54:49;;;;;;;2.80;1.50;;;;;;;;;;4972329;28;20043;-83
2022/08/18 10:57:28;;;;;;;2.13;1.27;;;;;;;;;;4950624;29;20538;-82
2022/08/18 10:59:59;;;;;;;2.08;1.65;;;;;;;;;;4971598;28;20078;-84
2022/08/18 11:02:41;;;;;;;2.25;1.52;;;;;;;;;;4972157;28;20490;-82
2022/08/18 11:05:11;;;;;;;1.88;1.45;;;;;;;;;;4962255;28;20444;-82
2022/08/18 11:07:45;;;;;;;3.17;1.30;;;;;;;;;;4971830;28;20046;-82
2022/08/18 11:10:22;;;;;;;1.90;1.17;;;;;;;;;;4972343;28;20081;-83
2022/08/18 11:13:04;;;;;;;2.17;1.20;;;;;;;;;;4971631;28;20542;-82
2022/08/18 11:15:59;;;;;;;2.72;1.75;;;;;;;;;;4970902;28;20046;-83
2022/08/18 11:18:32;;;;;;;3.33;2.05;;;;;;;;;;4972396;28;20105;-84
2022/08/18 11:21:23;;;;;;;2.58;1.65;;;;;;;;;;4971864;28;20081;-83
2022/08/18 11:24:10;;;;;;;2.40;1.55;;;;;;;;;;4971111;28;20058;-83
2022/08/18 11:26:42;;;;;;;5.40;1.67;;;;;;;;;;4970838;28;20419;-82
2022/08/18 11:29:18;;;;;;;2.15;1.63;;;;;;;;;;4969797;28;20137;-82
2022/08/18 11:31:46;;;;;;;2.72;1.52;;;;;;;;;;4971461;28;20093;-83
2022/08/18 11:34:39;;;;;;;1.80;1.27;;;;;;;;;;4963465;28;20529;-85
2022/08/18 11:37:25;;;;;;;4.15;1.50;;;;;;;;;;4918519;29;20484;-83
2022/08/18 11:39:58;;;;;;;2.20;1.27;;;;;;;;;;4951902;28;20048;-83
2022/08/18 11:42:28;;;;;;;1.88;1.38;;;;;;;;;;4952185;29;20043;-82
2022/08/18 11:45:03;;;;;;;2.25;1.20;;;;;;;;;;4952752;28;20094;-82
2022/08/18 11:47:32;;;;;;;;;;;;;;;;;;4971497;28;20137;-82
2022/08/18 11:50:07;;;;;;;1.55;1.45;;;;;;;;;;4971433;28;19976;-82
2022/08/18 11:52:47;;;;;;;3.08;1.42;;;;;;;;;;4970930;28;20054;-83
2022/08/18 11:55:28;;;;;;;4.23;1.80;;;;;;;;;;4970849;28;20050;-84
2022/08/18 11:57:58;;;;;;;2.15;1.50;;;;;;;;;;4971684;28;20297;-82
2022/08/18 12:00:41;;;;;;;2.30;1.55;;;;;;;;;;4971644;28;20046;-84
2022/08/18 12:03:31;;;;;;;1.52;1.23;;;;;;;;;;4959296;28;20491;-82
2022/08/18 12:06:01;;;;;;;8.52;1.52;;;;;;;;;;4970740;28;20101;-82
2022/08/18 12:08:36;;;;;;;3.03;1.02;;;;;;;;;;4974002;28;20101;-83
2022/08/18 12:11:27;;;;;;;2.22;1.30;;;;;;;;;;4970272;28;20042;-86
2022/08/18 12:14:00;;;;;;;2.17;1.25;;;;;;;;;;4970905;28;20090;-83
2022/08/18 12:16:49;;;;;;;2.72;1.58;;;;;;;;;;4970492;28;20054;-83
2022/08/18 12:19:22;;;;;;;1.27;0.93;;;;;;;;;;4969200;28;20050;-84
2022/08/18 12:21:52;;;;;;;1.73;1.40;;;;;;;;;;4970851;28;20049;-82
2022/08/18 12:24:23;;;;;;;8.93;1.92;;;;;;;;;;4971025;28;20046;-83
2022/08/18 12:26:58;;;;;;;2.03;1.40;;;;;;;;;;4970702;28;20133;-82
2022/08/18 12:29:28;;;;;;;5.53;1.67;;;;;;;;;;4970822;28;20055;-85
2022/08/18 12:32:12;;;;;;;2.50;1.70;;;;;;;;;;4980599;28;20051;-83
2022/08/18 12:35:01;;;;;;;3.50;1.50;;;;;;;;;;4968286;28;20046;-82
2022/08/18 12:37:37;;;;;;;2.10;1.42;;;;;;;;;;4951877;28;20051;-82
2022/08/18 12:40:26;;;;;;;2.35;1.60;;;;;;;;;;4952503;28;20531;-83
2022/08/18 12:42:56;;;;;;;2.25;1.73;;;;;;;;;;4955257;28;20051;-83
2022/08/18 12:45:29;;;;;;;2.00;1.05;;;;;;;;;;4960031;28;20073;-82
2022/08/18 12:48:01;;;;;;;2.22;1.55;;;;;;;;;;4975005;28;20487;-85
2022/08/18 12:50:32;;;;;;;2.20;1.40;;;;;;;;;;4968286;28;20074;-82
2022/08/18 12:53:06;;;;;;;;;;;;;;;;;;4974789;28;20470;-83
2022/08/18 12:55:37;;;;;;;4.18;1.90;;;;;;;;;;4974058;28;19973;-86
2022/08/18 12:58:15;;;;;;;1.77;1.45;;;;;;;;;;4971460;28;20113;-82
2022/08/18 13:00:44;;;;;;;2.13;1.27;;;;;;;;;;4974082;28;20050;-82
2022/08/18 13:03:13;;;;;;;2.83;1.23;;;;;;;;;;4971265;28;20043;-83
2022/08/18 13:05:43;;;;;;;3.80;1.55;;;;;;;;;;4972879;28;20058;-82
2022/08/18 13:08:17;;;;;;;3.25;1.85;;;;;;;;;;4974600;28;20042;-82
2022/08/18 13:11:09;;;;;;;3.88;1.63;;;;;;;;;;4973806;28;20050;-85
2022/08/18 13:13:50;;;;;;;1.63;1.40;;;;;;;;;;4973679;28;20063;-82
2022/08/18 13:16:23;;;;;;;1.63;1.42;;;;;;;;;;4973602;28;20053;-82
2022/08/18 13:19:13;;;;;;;3.97;1.42;;;;;;;;;;4973121;28;20090;-83
2022/08/18 13:21:41;;;;;;;1.88;1.58;;;;;;;;;;4973607;28;20483;-83
2022/08/18 13:24:10;;;;;;;2.42;1.25;;;;;;;;;;4973547;28;20043;-82
2022/08/18 13:26:42;;;;;;;2.97;1.60;;;;;;;;;;4973455;28;20054;-82
2022/08/18 13:29:15;;;;;;;1.45;1.30;;;;;;;;;;4971990;28;20074;-82
2022/08/18 13:31:46;;;;;;;2.30;1.42;;;;;;;;;;4973589;28;20403;-82
2022/08/18 13:34:26;;;;;;;2.47;1.70;;;;;;;;;;4973993;28;20078;-82
2022/08/18 13:36:57;;;;;;;2.50;1.67;;;;;;;;;;4973108;28;20054;-83
2022/08/18 13:39:26;;;;;;;2.33;1.55;;;;;;;;;;4973944;28;20462;-83
2022/08/18 13:42:02;;;;;;;4.47;1.52;;;;;;;;;;4971258;28;20106;-82
2022/08/18 13:44:53;;;;;;;2.17;1.45;;;;;;;;;;4972826;28;20564;-83
2022/08/18 13:47:28;;;;;;;1.80;1.30;;;;;;;;;;4978839;28;20046;-82
2022/08/18 13:49:58;;;;;;;5.40;1.77;;;;;;;;;;4973242;28;20566;-83
2022/08/18 13:52:27;;;;;;;2.85;1.55;;;;;;;;;;4972597;28;20082;-84
2022/08/18 13:55:07;;;;;;;2.60;1.67;;;;;;;;;;4973472;28;20057;-83
2022/08/18 13:57:46;;;;;;;3.28;1.48;;;;;;;;;;4973757;28;20113;-82
2022/08/18 14:00:19;;;;;;;2.33;1.58;;;;;;;;;;4974514;28;20396;-82
2022/08/18 14:02:59;;;;;;;4.45;1.70;;;;;;;;;;4973105;28;20051;-83
2022/08/18 14:05:31;;;;;;;2.47;1.80;;;;;;;;;;4972542;28;20058;-82
2022/08/18 14:08:19;;;;;;;1.75;1.30;;;;;;;;;;4963995;28;20094;-84
2022/08/18 14:10:49;;;;;;;2.20;1.88;;;;;;;;;;4972899;28;20550;-83
2022/08/18 14:13:19;;;;;;;3.33;1.70;;;;;;;;;;4972715;28;20080;-84
2022/08/18 14:15:54;;;;;;;2.72;1.75;;;;;;;;;;4972227;28;20042;-83
2022/08/18 14:18:23;;;;;;;2.47;1.45;;;;;;;;;;4973219;28;20047;-82
2022/08/18 14:29:17;;;;;;;2.40;1.65;;;;;;;;;;4973102;28;20046;-83
2022/08/18 14:32:08;;;;;;;2.83;1.52;;;;;;;;;;4972410;28;20059;-83
2022/08/18 14:34:45;;;;;;;4.82;1.52;;;;;;;;;;4972544;28;20050;-82
2022/08/18 14:37:18;;;;;;;1.88;1.38;;;;;;;;;;4953192;28;20066;-83
2022/08/18 14:39:47;;;;;;;2.50;1.70;;;;;;;;;;4954710;28;20062;-82
2022/08/18 14:42:21;;;;;;;3.08;1.95;;;;;;;;;;4953522;28;20502;-84
2022/08/18 14:45:10;;;;;;;1.88;1.35;;;;;;;;;;4956242;28;20047;-81
2022/08/18 14:48:00;;;;;;;2.15;1.45;;;;;;;;;;4972246;28;20498;-83
2022/08/18 14:50:34;;;;;;;3.35;1.40;;;;;;;;;;4972502;28;20072;-82
2022/08/18 14:53:02;;;;;;;1.83;1.05;;;;;;;;;;4972374;28;20057;-82
2022/08/18 14:55:31;;;;;;;2.35;1.77;;;;;;;;;;4971801;28;20516;-82
2022/08/18 14:58:01;;;;;;;2.40;1.40;;;;;;;;;;4972106;28;20415;-82
2022/08/18 15:00:29;;;;;;;1.13;1.02;;;;;;;;;;4972167;28;20070;-82
2022/08/18 15:03:00;;;;;;;2.90;1.45;;;;;;;;;;4971664;28;20090;-82
2022/08/18 15:05:31;;;;;;;3.42;1.65;;;;;;;;;;4971624;28;20058;-83
2022/08/18 15:08:03;;;;;;;2.33;1.48;;;;;;;;;;4969920;28;20130;-82
2022/08/18 15:10:32;;;;;;;1.38;1.20;;;;;;;;;;4972045;28;20082;-83
2022/08/18 15:13:00;;;;;;;2.33;1.63;;;;;;;;;;4972148;28;20050;-81
2022/08/18 15:15:31;;;;;;;1.90;1.30;;;;;;;;;;4971210;28;20129;-82
2022/08/18 15:18:20;;;;;;;1.45;1.02;;;;;;;;;;4964064;28;20491;-83
2022/08/18 15:26:47;;;;;;;1.63;1.50;;;;;;;;;;4971249;28;20064;-81
2022/08/18 15:29:25;;;;;;;1.85;1.30;;;;;;;;;;4968557;28;20134;-83
2022/08/18 15:31:57;;;;;;;2.42;1.30;;;;;;;;;;4971233;28;20069;-82
2022/08/18 15:34:35;;;;;;;2.72;1.88;;;;;;;;;;4971708;28;20055;-82
2022/08/18 15:37:16;;;;;;;2.67;1.58;;;;;;;;;;4970154;28;20047;-82
2022/08/18 15:39:47;;;;;;;3.38;1.75;;;;;;;;;;4972646;28;20074;-82
2022/08/18 15:42:22;;;;;;;1.67;1.33;;;;;;;;;;4971202;28;20522;-82
2022/08/18 15:44:52;;;;;;;2.13;1.40;;;;;;;;;;4970873;28;20126;-82
2022/08/18 15:47:21;;;;;;;2.55;1.73;;;;;;;;;;4971731;28;20057;-81
2022/08/18 15:49:53;;;;;;;2.45;1.40;;;;;;;;;;4971362;28;20121;-82
2022/08/18 15:52:24;;;;;;;2.47;1.40;;;;;;;;;;4971091;28;20402;-82
2022/08/18 15:54:53;;;;;;;3.78;1.70;;;;;;;;;;4970552;28;20058;-82